Latest Weather Observations for Weipa

IDQ60801

Issued at 11:02 pm EST Monday 22 December 2014 (issued every 30 minutes, with the page automatically refreshed every 10 minutes)

About weather observations | Map of weather stations | Latest weather observations for QLD | Other Formats
Station Details ID: 027045 Name: WEIPA AERO Lat: -12.68 Lon: 141.92 Height: 17.96 m
Data from the previous 72 hours. | See also: Recent months at Weipa
Date/Time
EST
Temp
°C
App
Temp
°C
Dew
Point
Rel
Hum
%
Delta-T
°C
Wind Press
QNH
hPa
Press
MSL
hPa
Rain
since 9 am
mm
Dir
 
Spd
km/h
Gust
km/h
Spd
kts
Gust
kts
22/11:00pm 28.9 30.4 20.5 60 5.6 E 13 19 7 10 1008.8 - 0.0
22/10:30pm 29.1 31.6 19.8 57 6.1 E 6 11 3 6 1008.8 - 0.0
22/10:00pm 29.6 31.1 19.7 55 6.5 E 11 19 6 10 1008.6 - 0.0
22/09:30pm 29.6 34.1 23.6 70 4.1 N 6 9 3 5 1008.4 - 0.0
22/09:00pm 30.0 35.8 24.5 72 3.8 ENE 2 6 1 3 1008.3 1008.1 0.0
22/08:30pm 29.8 35.8 24.9 75 3.4 ENE 2 4 1 2 1008.0 - 0.0
22/08:00pm 30.0 36.1 25.0 74 3.5 NW 2 6 1 3 1007.5 - 0.0
22/07:30pm 30.5 36.3 24.6 70 4.1 WNW 2 4 1 2 1007.3 - 0.0
22/07:00pm 30.6 35.2 24.1 68 4.5 WNW 7 11 4 6 1006.7 - 0.0
22/06:30pm 31.3 35.9 23.8 64 5.2 WSW 6 11 3 6 1006.3 - 0.0
22/06:00pm 32.2 36.5 23.6 60 6.0 SW 7 13 4 7 1006.0 1005.8 0.0
22/05:30pm 32.6 36.7 23.2 57 6.5 WSW 7 19 4 10 1005.8 - 0.0
22/05:00pm 34.3 37.7 21.0 45 9.0 SSW 4 13 2 7 1005.5 - 0.0
22/04:30pm 35.7 37.3 17.8 34 11.6 NNE 6 9 3 5 1005.3 - 0.0
22/04:00pm 35.7 37.8 18.0 35 11.5 WSW 4 7 2 4 1005.3 - 0.0
22/03:30pm 36.5 37.7 17.3 32 12.4 SE 7 15 4 8 1005.4 - 0.0
22/03:00pm 36.3 37.0 17.9 33 12.0 ESE 11 19 6 10 1005.8 1005.6 0.0
22/02:30pm 36.2 35.8 18.1 34 11.8 ESE 17 22 9 12 1006.2 - 0.0
22/02:00pm 35.1 36.3 18.2 36 11.0 E 9 22 5 12 1006.6 - 0.0
22/01:30pm 35.0 36.5 19.0 39 10.5 ESE 9 17 5 9 1007.1 - 0.0
22/01:00pm 34.9 36.8 19.7 41 10.1 ESE 9 20 5 11 1007.4 - 0.0
22/12:30pm 33.8 33.7 19.5 43 9.4 ESE 19 30 10 16 1007.8 - 0.0
22/12:00pm 33.6 34.8 19.8 44 9.2 SE 13 22 7 12 1008.2 1008.0 0.0
22/11:30am 32.6 32.6 19.7 46 8.5 E 19 26 10 14 1008.7 - 0.0
22/11:00am 32.1 32.4 20.4 50 7.8 ESE 19 28 10 15 1009.1 - 0.0
22/10:30am 31.7 32.3 21.0 53 7.2 ESE 19 28 10 15 1009.2 - 0.0
22/10:00am 31.2 32.1 21.5 56 6.5 E 19 28 10 15 1009.5 - 0.0
22/09:30am 30.4 31.7 22.4 62 5.4 ESE 19 30 10 16 1009.6 - 0.0
22/09:00am 29.5 30.7 22.5 66 4.8 E 20 33 11 18 1009.7 1009.5 0.0
22/08:30am 28.4 30.4 22.9 72 3.7 E 17 24 9 13 1009.8 - 0.0
22/08:00am 27.9 31.7 23.4 76 3.1 ESE 9 17 5 9 1009.9 - 0.0
22/07:30am 26.6 30.0 23.4 82 2.2 SE 11 15 6 8 1009.8 - 0.0
22/07:00am 25.6 30.0 23.4 88 1.5 SE 6 7 3 4 1009.5 - 0.0
22/06:30am 24.9 30.0 23.3 91 1.1 SE 2 4 1 2 1009.3 - 0.0
22/05:30am 24.9 29.5 23.1 90 1.2 SSE 4 6 2 3 1008.7 - 0.0
22/05:00am 24.4 28.5 23.0 92 0.9 S 6 7 3 4 1008.5 - 0.0
22/04:30am 24.2 28.5 23.3 95 0.6 SSE 6 6 3 3 1008.0 - 0.0
22/04:00am 24.4 29.1 23.4 94 0.7 E 4 4 2 2 1007.5 - 0.0
22/03:30am 24.9 29.9 23.2 90 1.2 S 2 4 1 2 1007.6 - 0.0
22/03:00am 25.1 30.5 23.2 89 1.3 CALM 0 0 0 0 1007.5 1007.3 0.0
22/02:30am 25.6 30.5 23.1 86 1.7 SSE 2 6 1 3 1007.6 - 0.0
22/02:00am 25.9 30.1 23.4 86 1.7 ESE 7 9 4 5 1007.9 - 0.0
22/01:30am 26.4 30.5 22.9 81 2.4 ENE 6 11 3 6 1008.2 - 0.0
22/01:00am 26.7 30.8 23.0 80 2.5 E 6 9 3 5 1008.7 - 0.0
22/12:30am 27.0 31.1 22.9 78 2.8 E 6 11 3 6 1009.2 - 0.0
22/12:00am 27.5 31.6 23.0 76 3.1 E 6 9 3 5 1009.3 1009.1 0.0
 
Date/Time
EST
Temp
°C
App
Temp
°C
Dew
Point
Rel
Hum
%
Delta-T
°C
Wind Press
QNH
hPa
Press
MSL
hPa
Rain
since 9 am
mm
Dir
 
Spd
km/h
Gust
km/h
Spd
kts
Gust
kts
21/11:30pm 27.9 31.3 22.7 73 3.5 E 9 13 5 7 1009.3 - 0.0
21/11:00pm 28.3 31.9 23.1 73 3.6 ENE 9 15 5 8 1009.0 - 0.0
21/10:30pm 28.7 32.2 23.5 73 3.6 E 11 17 6 9 1009.0 - 0.0
21/10:00pm 29.3 32.3 23.3 70 4.1 E 13 20 7 11 1008.6 - 0.0
21/09:30pm 29.4 34.8 25.5 79 2.8 E 7 9 4 5 1008.5 - 0.0
21/09:00pm 29.1 35.0 25.9 83 2.3 ENE 6 17 3 9 1008.3 1008.1 0.0
21/08:30pm 29.1 35.1 25.5 81 2.5 NNE 4 6 2 3 1007.7 - 0.0
21/08:00pm 29.3 35.0 25.6 80 2.6 NE 6 6 3 3 1007.3 - 0.0
21/07:30pm 29.6 36.0 25.5 78 2.9 NW 2 4 1 2 1007.0 - 0.0
21/07:00pm 29.6 35.1 25.3 77 3.0 W 6 7 3 4 1006.7 - 0.0
21/06:30pm 29.9 34.4 25.2 76 3.3 NW 11 15 6 8 1006.3 - 0.0
21/06:00pm 31.2 34.5 25.1 70 4.3 NNW 17 26 9 14 1006.0 1005.8 0.0
21/05:30pm 32.0 33.6 22.8 58 6.3 N 19 30 10 16 1005.9 - 0.0
21/05:00pm 35.4 37.3 20.6 42 10.0 ESE 11 19 6 10 1005.5 - 0.0
21/04:30pm 35.3 37.9 21.2 44 9.6 SSE 9 17 5 9 1005.6 - 0.0
21/04:00pm 34.8 36.9 20.9 44 9.4 SE 11 19 6 10 1005.8 - 0.0
21/03:30pm 34.9 37.9 21.3 45 9.2 SE 7 19 4 10 1006.2 - 0.0
21/03:00pm 34.6 38.6 22.0 48 8.6 SSW 4 11 2 6 1006.8 1006.6 0.0
21/02:30pm 33.3 36.7 22.0 51 7.7 SSW 7 15 4 8 1007.4 - 0.0
21/02:00pm 32.8 36.3 22.1 53 7.3 S 7 19 4 10 1007.8 - 0.0
21/01:30pm 32.4 36.3 23.0 57 6.5 SSW 7 15 4 8 1008.3 - 0.0
21/01:00pm 33.3 36.7 21.6 50 7.9 S 6 11 3 6 1008.9 - 0.0
21/12:30pm 33.2 34.9 20.9 48 8.3 ESE 13 24 7 13 1009.3 - 0.0
21/12:00pm 33.5 36.1 21.9 50 7.9 E 11 26 6 14 1009.8 1009.6 0.0
21/11:30am 32.3 34.3 21.5 53 7.3 NE 13 19 7 10 1010.1 - 0.0
21/11:00am 31.3 33.6 22.1 58 6.2 ENE 13 22 7 12 1010.4 - 0.0
21/10:30am 31.2 33.0 22.5 60 5.9 E 17 24 9 13 1010.4 - 0.0
21/10:00am 30.4 32.7 22.8 64 5.2 E 15 24 8 13 1010.5 - 0.0
21/09:30am 29.5 32.3 23.0 68 4.4 E 13 22 7 12 1010.5 - 0.0
21/09:00am 29.2 32.4 23.7 72 3.8 ENE 13 19 7 10 1010.3 1010.1 0.0
21/08:30am 28.6 31.7 23.5 74 3.5 ENE 13 22 7 12 1010.1 - 0.0
21/08:00am 28.2 32.8 24.1 78 2.8 ENE 7 13 4 7 1009.8 - 0.0
21/07:30am 27.4 32.6 23.6 80 2.6 E 2 4 1 2 1009.9 - 0.0
21/07:00am 25.7 31.3 23.6 88 1.4 CALM 0 2 0 1 1009.6 - 0.0
21/06:30am 24.6 30.2 23.6 94 0.7 CALM 0 0 0 0 1009.2 - 0.0
21/06:00am 24.5 29.7 23.5 94 0.7 NE 2 4 1 2 1008.8 1008.6 0.0
21/05:30am 24.5 29.0 23.7 95 0.5 ENE 6 7 3 4 1008.5 - 0.0
21/05:00am 24.9 30.3 23.8 94 0.8 SE 2 4 1 2 1008.3 - 0.0
21/04:30am 25.1 30.8 23.8 92 0.9 CALM 0 0 0 0 1008.2 - 0.0
21/04:00am 25.2 30.2 23.8 92 1.0 ENE 4 6 2 3 1008.1 - 0.0
21/03:30am 25.6 30.8 23.6 89 1.4 ENE 2 4 1 2 1008.2 - 0.0
21/03:00am 25.9 31.6 24.4 91 1.0 ESE 2 4 1 2 1008.6 1008.4 0.0
21/02:30am 26.1 31.9 23.9 88 1.5 CALM 0 2 0 1 1008.8 - 0.0
21/02:00am 26.4 31.9 24.0 87 1.7 NE 2 4 1 2 1008.9 - 0.0
21/01:30am 26.8 31.9 23.3 81 2.4 ENE 2 4 1 2 1009.1 - 0.0
21/01:00am 26.9 31.9 23.2 80 2.5 NE 2 4 1 2 1009.1 - 0.0
21/12:30am 27.1 31.6 22.9 78 2.9 NNE 4 7 2 4 1009.2 - 0.0
21/12:00am 27.5 31.2 22.5 74 3.4 ENE 7 13 4 7 1009.3 1009.1 0.0
 
Date/Time
EST
Temp
°C
App
Temp
°C
Dew
Point
Rel
Hum
%
Delta-T
°C
Wind Press
QNH
hPa
Press
MSL
hPa
Rain
since 9 am
mm
Dir
 
Spd
km/h
Gust
km/h
Spd
kts
Gust
kts
20/11:30pm 27.9 31.0 22.2 71 3.8 ENE 9 15 5 8 1009.3 - 0.0
20/11:00pm 28.4 31.3 22.5 70 4.0 ENE 11 17 6 9 1009.4 - 0.0
20/10:30pm 28.6 33.3 24.9 80 2.6 NE 9 17 5 9 1009.2 - 0.0
20/10:00pm 28.6 34.0 25.1 81 2.5 NE 6 9 3 5 1009.0 - 0.0
20/09:30pm 28.7 33.5 25.1 81 2.5 NE 9 13 5 7 1008.7 - 0.0
20/09:00pm 28.9 34.8 25.3 81 2.5 NNE 4 6 2 3 1008.2 1008.0 0.0
20/08:30pm 29.3 35.2 25.4 79 2.8 N 4 7 2 4 1008.0 - 0.0
20/08:00pm 29.6 35.7 25.1 77 3.2 NNW 2 6 1 3 1007.8 - 0.0
20/07:30pm 29.5 34.9 25.1 77 3.1 WNW 6 9 3 5 1007.3 - 0.0
20/07:00pm 29.9 35.1 24.8 74 3.6 W 6 13 3 7 1006.6 - 0.0
20/06:30pm 30.2 34.5 24.3 70 4.1 W 9 17 5 9 1006.4 - 0.0
20/06:00pm 31.0 35.1 24.0 66 4.9 W 9 19 5 10 1006.3 1006.1 0.0
20/05:30pm 31.4 35.0 23.7 63 5.3 WSW 11 22 6 12 1005.8 - 0.0
20/05:00pm 32.0 34.7 22.8 58 6.3 W 13 24 7 13 1005.6 - 0.0
20/04:30pm 32.2 34.3 23.1 58 6.3 W 17 26 9 14 1005.6 - 0.0
20/04:00pm 33.0 35.5 23.1 56 6.8 W 15 24 8 13 1005.5 - 0.0
20/03:30pm 34.5 38.0 22.1 48 8.5 SW 7 17 4 9 1005.6 - 0.0
20/03:00pm 34.1 36.4 21.4 47 8.6 SW 11 19 6 10 1005.9 1005.7 0.0
20/02:30pm 34.2 37.1 21.1 46 8.8 SW 7 15 4 8 1006.3 - 0.0
20/02:00pm 33.7 36.1 20.8 46 8.7 WNW 9 13 5 7 1006.8 - 0.0
20/01:30pm 33.3 36.5 21.2 49 8.2 SW 6 15 3 8 1007.5 - 0.0
20/01:00pm 33.4 35.9 20.3 46 8.7 E 7 17 4 9 1008.0 - 0.0
20/12:30pm 33.0 35.7 20.3 47 8.5 NNE 6 13 3 7 1008.3 - 0.0
20/12:00pm 33.0 35.5 20.3 47 8.5 SE 7 19 4 10 1008.9 1008.7 0.0
20/11:30am 32.1 35.1 21.3 53 7.3 E 7 11 4 6 1009.5 - 0.0
20/11:00am 31.5 34.4 21.1 54 7.0 E 7 17 4 9 1010.0 - 0.0
20/10:30am 30.8 32.7 20.6 54 6.8 E 11 17 6 9 1010.3 - 0.0
20/10:00am 30.4 33.4 22.6 63 5.3 ENE 11 17 6 9 1010.4 - 0.0
20/09:30am 29.9 32.5 22.6 65 5.0 E 13 19 7 10 1010.5 - 0.0
20/09:00am 28.9 32.2 23.9 74 3.5 ENE 13 20 7 11 1010.5 1010.3 13.8
20/08:30am 27.8 32.2 24.4 82 2.4 ENE 9 15 5 8 1010.4 - 13.8
20/08:00am 26.8 31.7 24.3 86 1.7 ENE 6 9 3 5 1010.4 - 13.8
20/07:30am 26.2 31.6 24.5 90 1.2 E 4 7 2 4 1010.4 - 13.8
20/07:00am 25.6 31.0 24.5 94 0.8 NNE 4 6 2 3 1010.1 - 13.8
20/06:30am 25.3 30.2 24.4 95 0.6 E 6 7 3 4 1009.6 - 13.8
20/06:00am 25.1 29.9 24.2 95 0.6 E 6 7 3 4 1008.9 1008.7 13.8
20/05:30am 25.1 30.8 24.4 96 0.5 S 2 4 1 2 1008.8 - 13.8
20/05:00am 25.1 31.1 24.2 95 0.6 CALM 0 0 0 0 1008.5 - 13.8
20/04:30am 24.8 30.7 24.1 96 0.5 CALM 0 0 0 0 1008.0 - 13.8
20/04:00am 24.7 29.8 24.0 96 0.5 E 4 6 2 3 1008.0 - 13.8
20/03:30am 24.9 30.7 24.0 95 0.6 CALM 0 0 0 0 1008.4 - 13.8
20/03:00am 24.8 29.5 24.0 95 0.5 ENE 6 6 3 3 1007.9 1007.7 13.8
20/02:30am 25.2 30.3 24.1 94 0.8 ESE 4 4 2 2 1008.6 - 13.8
20/02:00am 25.1 30.2 23.4 90 1.2 ENE 2 4 1 2 1008.9 - 13.8
20/01:30am 24.8 29.3 23.7 94 0.8 E 6 7 3 4 1009.3 - 13.8
20/01:00am 24.8 30.0 23.6 93 0.8 ESE 2 6 1 3 1009.8 - 13.8
20/12:30am 24.6 29.7 23.4 93 0.8 E 2 6 1 3 1009.6 - 13.8
20/12:00am 24.5 29.7 23.6 95 0.6 ESE 2 4 1 2 1010.3 1010.1 13.8
 
Date/Time
EST
Temp
°C
App
Temp
°C
Dew
Point
Rel
Hum
%
Delta-T
°C
Wind Press
QNH
hPa
Press
MSL
hPa
Rain
since 9 am
mm
Dir
 
Spd
km/h
Gust
km/h
Spd
kts
Gust
kts
19/11:30pm 24.6 30.0 23.3 92 0.9 CALM 0 6 0 3 1010.8 - 13.8

Other Formats:

Comma delimited format used in spreadsheet applications
http://www.bom.gov.au/fwo/IDQ60801/IDQ60801.94170.axf

JavaScript Object Notation format (JSON) in row-major order
http://www.bom.gov.au/fwo/IDQ60801/IDQ60801.94170.json